sensor_id;sensor_type;location;lat;lon;timestamp;pressure;altitude;pressure_sealevel;temperature;humidity
51781;BME280;37844;57.126;24.288;2022-10-29T00:00:01;101255.94;;;14.28;100.00
51781;BME280;37844;57.126;24.288;2022-10-29T00:02:26;101255.09;;;14.29;100.00
51781;BME280;37844;57.126;24.288;2022-10-29T00:04:52;101246.44;;;14.27;100.00
51781;BME280;37844;57.126;24.288;2022-10-29T00:07:17;101249.00;;;14.28;100.00
51781;BME280;37844;57.126;24.288;2022-10-29T00:09:42;101239.50;;;14.26;100.00
51781;BME280;37844;57.126;24.288;2022-10-29T00:12:08;101237.78;;;14.26;100.00
51781;BME280;37844;57.126;24.288;2022-10-29T00:14:34;101247.28;;;14.26;100.00
51781;BME280;37844;57.126;24.288;2022-10-29T00:16:59;101245.56;;;14.25;100.00
51781;BME280;37844;57.126;24.288;2022-10-29T00:19:25;101243.81;;;14.22;100.00
51781;BME280;37844;57.126;24.288;2022-10-29T00:21:52;101245.53;;;14.20;100.00
51781;BME280;37844;57.126;24.288;2022-10-29T00:24:17;101244.66;;;14.19;100.00
51781;BME280;37844;57.126;24.288;2022-10-29T00:26:42;101236.00;;;14.14;100.00
51781;BME280;37844;57.126;24.288;2022-10-29T00:29:08;101231.66;;;14.13;100.00
51781;BME280;37844;57.126;24.288;2022-10-29T00:31:33;101224.72;;;14.14;100.00
51781;BME280;37844;57.126;24.288;2022-10-29T00:33:59;101208.28;;;14.06;100.00
51781;BME280;37844;57.126;24.288;2022-10-29T00:36:27;101223.88;;;14.13;100.00
51781;BME280;37844;57.126;24.288;2022-10-29T00:38:59;101221.31;;;14.15;100.00
51781;BME280;37844;57.126;24.288;2022-10-29T00:41:27;101211.78;;;14.14;100.00
51781;BME280;37844;57.126;24.288;2022-10-29T00:49:34;101197.03;;;14.07;100.00
51781;BME280;37844;57.126;24.288;2022-10-29T00:52:02;101198.78;;;14.09;100.00
51781;BME280;37844;57.126;24.288;2022-10-29T00:54:30;101192.72;;;14.04;100.00
51781;BME280;37844;57.126;24.288;2022-10-29T00:57:02;101191.88;;;14.05;100.00
51781;BME280;37844;57.126;24.288;2022-10-29T00:59:28;101198.81;;;14.11;100.00
51781;BME280;37844;57.126;24.288;2022-10-29T01:01:54;101195.34;;;14.13;100.00
51781;BME280;37844;57.126;24.288;2022-10-29T01:04:21;101188.44;;;14.14;100.00
51781;BME280;37844;57.126;24.288;2022-10-29T01:06:47;101188.44;;;14.12;100.00
51781;BME280;37844;57.126;24.288;2022-10-29T01:09:13;101180.69;;;14.12;100.00
51781;BME280;37844;57.126;24.288;2022-10-29T01:12:21;101174.63;;;14.12;100.00
51781;BME280;37844;57.126;24.288;2022-10-29T01:36:52;101154.72;;;14.09;100.00
51781;BME280;37844;57.126;24.288;2022-10-29T01:39:54;101143.53;;;14.12;100.00
51781;BME280;37844;57.126;24.288;2022-10-29T01:42:27;101140.91;;;14.13;100.00
51781;BME280;37844;57.126;24.288;2022-10-29T01:45:24;101146.13;;;14.12;100.00
51781;BME280;37844;57.126;24.288;2022-10-29T01:47:55;101139.19;;;14.14;100.00
51781;BME280;37844;57.126;24.288;2022-10-29T01:50:23;101133.13;;;14.13;100.00
51781;BME280;37844;57.126;24.288;2022-10-29T01:52:51;101129.69;;;14.13;100.00
51781;BME280;37844;57.126;24.288;2022-10-29T01:55:19;101133.13;;;14.13;100.00
51781;BME280;37844;57.126;24.288;2022-10-29T01:57:45;101132.28;;;14.13;100.00
51781;BME280;37844;57.126;24.288;2022-10-29T02:00:13;101131.41;;;14.14;100.00
51781;BME280;37844;57.126;24.288;2022-10-29T02:07:56;101128.81;;;14.14;100.00
51781;BME280;37844;57.126;24.288;2022-10-29T02:10:27;101124.50;;;14.14;100.00
51781;BME280;37844;57.126;24.288;2022-10-29T02:12:56;101113.25;;;14.14;100.00
51781;BME280;37844;57.126;24.288;2022-10-29T02:18:00;101111.53;;;14.16;100.00
51781;BME280;37844;57.126;24.288;2022-10-29T02:20:26;101112.41;;;14.12;100.00
51781;BME280;37844;57.126;24.288;2022-10-29T02:22:52;101102.88;;;14.14;100.00
51781;BME280;37844;57.126;24.288;2022-10-29T02:25:17;101110.69;;;14.12;100.00
51781;BME280;37844;57.126;24.288;2022-10-29T02:27:42;101103.75;;;14.13;100.00
51781;BME280;37844;57.126;24.288;2022-10-29T02:30:08;101097.69;;;14.14;100.00
51781;BME280;37844;57.126;24.288;2022-10-29T02:32:34;101102.03;;;14.13;100.00
51781;BME280;37844;57.126;24.288;2022-10-29T02:35:00;101098.56;;;14.11;100.00
51781;BME280;37844;57.126;24.288;2022-10-29T02:37:25;101086.47;;;14.12;100.00
51781;BME280;37844;57.126;24.288;2022-10-29T02:39:51;101090.78;;;14.11;100.00
51781;BME280;37844;57.126;24.288;2022-10-29T02:42:16;101082.13;;;14.09;100.00
51781;BME280;37844;57.126;24.288;2022-10-29T02:44:42;101089.91;;;14.11;100.00
51781;BME280;37844;57.126;24.288;2022-10-29T02:47:07;101084.75;;;14.12;100.00
51781;BME280;37844;57.126;24.288;2022-10-29T02:49:32;101081.28;;;14.13;100.00
51781;BME280;37844;57.126;24.288;2022-10-29T02:51:58;101082.16;;;14.12;100.00
51781;BME280;37844;57.126;24.288;2022-10-29T02:54:23;101077.81;;;14.11;100.00
51781;BME280;37844;57.126;24.288;2022-10-29T02:56:49;101065.75;;;14.12;100.00
51781;BME280;37844;57.126;24.288;2022-10-29T02:59:20;101068.31;;;14.09;100.00
51781;BME280;37844;57.126;24.288;2022-10-29T03:01:46;101063.97;;;14.05;100.00
51781;BME280;37844;57.126;24.288;2022-10-29T03:04:11;101057.91;;;13.99;100.00
51781;BME280;37844;57.126;24.288;2022-10-29T03:06:37;101057.03;;;13.99;100.00
51781;BME280;37844;57.126;24.288;2022-10-29T03:09:03;101055.31;;;13.99;100.00
51781;BME280;37844;57.126;24.288;2022-10-29T03:11:28;101055.31;;;14.01;100.00
51781;BME280;37844;57.126;24.288;2022-10-29T03:13:54;101052.72;;;13.98;100.00
51781;BME280;37844;57.126;24.288;2022-10-29T03:16:19;101043.19;;;13.92;100.00
51781;BME280;37844;57.126;24.288;2022-10-29T03:18:45;101047.50;;;13.95;100.00
51781;BME280;37844;57.126;24.288;2022-10-29T03:21:10;101050.97;;;13.92;100.00
51781;BME280;37844;57.126;24.288;2022-10-29T03:23:36;101045.78;;;13.89;100.00
51781;BME280;37844;57.126;24.288;2022-10-29T03:26:01;101043.16;;;13.85;100.00
51781;BME280;37844;57.126;24.288;2022-10-29T03:28:27;101045.72;;;13.83;100.00
51781;BME280;37844;57.126;24.288;2022-10-29T03:30:53;101048.34;;;13.86;100.00
51781;BME280;37844;57.126;24.288;2022-10-29T03:33:18;101050.94;;;13.85;100.00
51781;BME280;37844;57.126;24.288;2022-10-29T03:35:44;101042.31;;;13.84;100.00
51781;BME280;37844;57.126;24.288;2022-10-29T03:38:09;101038.84;;;13.85;100.00
51781;BME280;37844;57.126;24.288;2022-10-29T03:40:34;101042.28;;;13.79;100.00
51781;BME280;37844;57.126;24.288;2022-10-29T03:43:00;101044.00;;;13.79;100.00
51781;BME280;37844;57.126;24.288;2022-10-29T03:45:25;101031.91;;;13.76;100.00
51781;BME280;37844;57.126;24.288;2022-10-29T03:47:51;101025.84;;;13.74;100.00
51781;BME280;37844;57.126;24.288;2022-10-29T03:50:16;101028.44;;;13.74;100.00
51781;BME280;37844;57.126;24.288;2022-10-29T03:52:42;101027.56;;;13.69;100.00
51781;BME280;37844;57.126;24.288;2022-10-29T03:55:07;101026.69;;;13.70;100.00
51781;BME280;37844;57.126;24.288;2022-10-29T03:57:33;101014.56;;;13.66;100.00
51781;BME280;37844;57.126;24.288;2022-10-29T03:59:58;101018.00;;;13.64;100.00
51781;BME280;37844;57.126;24.288;2022-10-29T04:02:25;101015.41;;;13.59;100.00
51781;BME280;37844;57.126;24.288;2022-10-29T04:04:51;101026.66;;;13.63;100.00
51781;BME280;37844;57.126;24.288;2022-10-29T04:07:17;101027.53;;;13.65;100.00
51781;BME280;37844;57.126;24.288;2022-10-29T04:09:42;101015.41;;;13.61;100.00
51781;BME280;37844;57.126;24.288;2022-10-29T04:12:08;101016.25;;;13.56;100.00
51781;BME280;37844;57.126;24.288;2022-10-29T04:14:34;101020.59;;;13.61;100.00
51781;BME280;37844;57.126;24.288;2022-10-29T04:16:59;101015.41;;;13.61;100.00
51781;BME280;37844;57.126;24.288;2022-10-29T04:19:32;101009.38;;;13.60;100.00
51781;BME280;37844;57.126;24.288;2022-10-29T04:21:58;101003.31;;;13.61;100.00
51781;BME280;37844;57.126;24.288;2022-10-29T04:24:23;101003.34;;;13.63;100.00
51781;BME280;37844;57.126;24.288;2022-10-29T04:26:56;100995.56;;;13.64;100.00
51781;BME280;37844;57.126;24.288;2022-10-29T04:29:21;100990.38;;;13.64;100.00
51781;BME280;37844;57.126;24.288;2022-10-29T04:31:46;101002.50;;;13.67;100.00
51781;BME280;37844;57.126;24.288;2022-10-29T04:34:12;100999.03;;;13.63;100.00
51781;BME280;37844;57.126;24.288;2022-10-29T04:36:37;101004.22;;;13.65;100.00
51781;BME280;37844;57.126;24.288;2022-10-29T04:39:03;101003.34;;;13.63;100.00
51781;BME280;37844;57.126;24.288;2022-10-29T04:41:29;100993.88;;;13.65;100.00
51781;BME280;37844;57.126;24.288;2022-10-29T04:43:54;100989.53;;;13.64;100.00
51781;BME280;37844;57.126;24.288;2022-10-29T04:46:19;100991.28;;;13.68;100.00
51781;BME280;37844;57.126;24.288;2022-10-29T04:48:45;100993.00;;;13.70;100.00
51781;BME280;37844;57.126;24.288;2022-10-29T04:51:18;100980.03;;;13.66;100.00
51781;BME280;37844;57.126;24.288;2022-10-29T04:53:44;100986.94;;;13.65;100.00
51781;BME280;37844;57.126;24.288;2022-10-29T04:56:09;100982.63;;;13.66;100.00
51781;BME280;37844;57.126;24.288;2022-10-29T04:58:35;100975.72;;;13.66;100.00
51781;BME280;37844;57.126;24.288;2022-10-29T05:01:01;100976.59;;;13.68;100.00
51781;BME280;37844;57.126;24.288;2022-10-29T05:03:26;100961.91;;;13.66;100.00
51781;BME280;37844;57.126;24.288;2022-10-29T05:05:52;100973.16;;;13.69;100.00
51781;BME280;37844;57.126;24.288;2022-10-29T05:08:17;100971.44;;;13.70;100.00
51781;BME280;37844;57.126;24.288;2022-10-29T05:10:43;100968.00;;;13.74;100.00
51781;BME280;37844;57.126;24.288;2022-10-29T05:13:10;100965.38;;;13.75;100.00
51781;BME280;37844;57.126;24.288;2022-10-29T05:15:37;100950.72;;;13.74;100.00
51781;BME280;37844;57.126;24.288;2022-10-29T05:18:03;100956.78;;;13.76;100.00
51781;BME280;37844;57.126;24.288;2022-10-29T05:20:29;100949.84;;;13.78;100.00
51781;BME280;37844;57.126;24.288;2022-10-29T05:23:05;100948.13;;;13.74;100.00
51781;BME280;37844;57.126;24.288;2022-10-29T05:25:34;100940.34;;;13.77;100.00
51781;BME280;37844;57.126;24.288;2022-10-29T05:28:10;100941.22;;;13.78;100.00
51781;BME280;37844;57.126;24.288;2022-10-29T05:30:36;100950.72;;;13.77;100.00
51781;BME280;37844;57.126;24.288;2022-10-29T05:33:08;100936.91;;;13.78;100.00
51781;BME280;37844;57.126;24.288;2022-10-29T05:35:34;100940.38;;;13.79;100.00
51781;BME280;37844;57.126;24.288;2022-10-29T05:38:00;100933.47;;;13.79;100.00
51781;BME280;37844;57.126;24.288;2022-10-29T05:40:26;100927.41;;;13.77;100.00
51781;BME280;37844;57.126;24.288;2022-10-29T05:42:51;100930.00;;;13.79;100.00
51781;BME280;37844;57.126;24.288;2022-10-29T05:45:17;100925.69;;;13.79;100.00
51781;BME280;37844;57.126;24.288;2022-10-29T05:47:43;100925.69;;;13.81;100.00
51781;BME280;37844;57.126;24.288;2022-10-29T05:50:09;100928.28;;;13.79;100.00
51781;BME280;37844;57.126;24.288;2022-10-29T05:52:35;100923.09;;;13.79;100.00
51781;BME280;37844;57.126;24.288;2022-10-29T05:55:00;100917.03;;;13.81;100.00
51781;BME280;37844;57.126;24.288;2022-10-29T05:57:27;100919.63;;;13.76;100.00
51781;BME280;37844;57.126;24.288;2022-10-29T05:59:52;100922.22;;;13.82;100.00
51781;BME280;37844;57.126;24.288;2022-10-29T06:02:18;100920.50;;;13.83;100.00
51781;BME280;37844;57.126;24.288;2022-10-29T06:04:43;100920.50;;;13.83;100.00
51781;BME280;37844;57.126;24.288;2022-10-29T06:07:09;100919.63;;;13.82;100.00
51781;BME280;37844;57.126;24.288;2022-10-29T06:09:34;100920.50;;;13.84;100.00
51781;BME280;37844;57.126;24.288;2022-10-29T06:12:00;100920.50;;;13.83;100.00
51781;BME280;37844;57.126;24.288;2022-10-29T06:14:25;100912.75;;;13.81;100.00
51781;BME280;37844;57.126;24.288;2022-10-29T06:16:50;100909.28;;;13.79;100.00
51781;BME280;37844;57.126;24.288;2022-10-29T06:19:16;100906.69;;;13.74;100.00
51781;BME280;37844;57.126;24.288;2022-10-29T06:21:41;100898.03;;;13.77;100.00
51781;BME280;37844;57.126;24.288;2022-10-29T06:24:07;100888.53;;;13.74;100.00
51781;BME280;37844;57.126;24.288;2022-10-29T06:26:33;100888.53;;;13.76;100.00
51781;BME280;37844;57.126;24.288;2022-10-29T06:28:59;100889.41;;;13.76;100.00
51781;BME280;37844;57.126;24.288;2022-10-29T06:31:24;100891.13;;;13.77;100.00
51781;BME280;37844;57.126;24.288;2022-10-29T06:33:50;100884.22;;;13.75;100.00
51781;BME280;37844;57.126;24.288;2022-10-29T06:36:15;100875.56;;;13.71;100.00
51781;BME280;37844;57.126;24.288;2022-10-29T06:38:41;100879.03;;;13.70;100.00
51781;BME280;37844;57.126;24.288;2022-10-29T06:41:06;100884.22;;;13.70;100.00
51781;BME280;37844;57.126;24.288;2022-10-29T06:43:34;100871.25;;;13.73;100.00
51781;BME280;37844;57.126;24.288;2022-10-29T06:45:59;100863.47;;;13.70;100.00
51781;BME280;37844;57.126;24.288;2022-10-29T06:48:25;100863.50;;;13.72;100.00
51781;BME280;37844;57.126;24.288;2022-10-29T06:50:50;100851.41;;;13.72;100.00
51781;BME280;37844;57.126;24.288;2022-10-29T06:53:16;100844.47;;;13.73;100.00
51781;BME280;37844;57.126;24.288;2022-10-29T06:55:42;100850.53;;;13.72;100.00
51781;BME280;37844;57.126;24.288;2022-10-29T06:58:12;100844.50;;;13.74;100.00
51781;BME280;37844;57.126;24.288;2022-10-29T07:00:39;100826.34;;;13.73;100.00
51781;BME280;37844;57.126;24.288;2022-10-29T07:03:05;100825.47;;;13.71;100.00
51781;BME280;37844;57.126;24.288;2022-10-29T07:05:32;100814.25;;;13.69;100.00
51781;BME280;37844;57.126;24.288;2022-10-29T07:07:59;100815.13;;;13.68;100.00
51781;BME280;37844;57.126;24.288;2022-10-29T07:10:27;100816.84;;;13.70;100.00
51781;BME280;37844;57.126;24.288;2022-10-29T07:12:53;100815.97;;;13.64;100.00
51781;BME280;37844;57.126;24.288;2022-10-29T07:15:18;100802.16;;;13.66;100.00
51781;BME280;37844;57.126;24.288;2022-10-29T07:18:13;100797.84;;;13.65;100.00
51781;BME280;37844;57.126;24.288;2022-10-29T07:20:41;100790.94;;;13.66;100.00
51781;BME280;37844;57.126;24.288;2022-10-29T07:23:08;100784.88;;;13.71;100.00
51781;BME280;37844;57.126;24.288;2022-10-29T07:25:34;100782.31;;;13.68;100.00
51781;BME280;37844;57.126;24.288;2022-10-29T07:28:10;100763.31;;;13.71;100.00
51781;BME280;37844;57.126;24.288;2022-10-29T07:30:36;100775.41;;;13.76;100.00
51781;BME280;37844;57.126;24.288;2022-10-29T07:33:03;100754.69;;;13.76;100.00
51781;BME280;37844;57.126;24.288;2022-10-29T07:35:29;100761.59;;;13.74;100.00
51781;BME280;37844;57.126;24.288;2022-10-29T07:37:59;100757.25;;;13.78;100.00
51781;BME280;37844;57.126;24.288;2022-10-29T07:40:24;100759.00;;;13.82;100.00
51781;BME280;37844;57.126;24.288;2022-10-29T07:42:53;100751.22;;;13.77;100.00
51781;BME280;37844;57.126;24.288;2022-10-29T07:45:19;100760.72;;;13.82;100.00
51781;BME280;37844;57.126;24.288;2022-10-29T07:47:44;100759.00;;;13.87;100.00
51781;BME280;37844;57.126;24.288;2022-10-29T07:50:10;100748.63;;;13.87;100.00
51781;BME280;37844;57.126;24.288;2022-10-29T07:52:36;100736.53;;;13.89;100.00
51781;BME280;37844;57.126;24.288;2022-10-29T07:55:01;100738.28;;;13.91;100.00
51781;BME280;37844;57.126;24.288;2022-10-29T07:57:27;100730.50;;;13.87;100.00
51781;BME280;37844;57.126;24.288;2022-10-29T07:59:53;100729.63;;;13.94;100.00
51781;BME280;37844;57.126;24.288;2022-10-29T08:02:18;100729.63;;;13.92;100.00
51781;BME280;37844;57.126;24.288;2022-10-29T08:04:43;100734.81;;;13.95;100.00
51781;BME280;37844;57.126;24.288;2022-10-29T08:07:09;100740.00;;;13.98;100.00
51781;BME280;37844;57.126;24.288;2022-10-29T08:09:34;100729.63;;;13.95;100.00
51781;BME280;37844;57.126;24.288;2022-10-29T08:12:00;100727.03;;;13.98;100.00
51781;BME280;37844;57.126;24.288;2022-10-29T08:14:25;100727.88;;;14.04;100.00
51781;BME280;37844;57.126;24.288;2022-10-29T08:16:54;100730.47;;;14.04;100.00
51781;BME280;37844;57.126;24.288;2022-10-29T08:19:19;100724.41;;;14.05;100.00
51781;BME280;37844;57.126;24.288;2022-10-29T08:21:44;100726.16;;;14.06;100.00
51781;BME280;37844;57.126;24.288;2022-10-29T08:24:11;100715.78;;;14.09;100.00
51781;BME280;37844;57.126;24.288;2022-10-29T08:26:36;100714.06;;;14.12;100.00
51781;BME280;37844;57.126;24.288;2022-10-29T08:29:02;100700.19;;;14.18;100.00
51781;BME280;37844;57.126;24.288;2022-10-29T08:31:27;100708.84;;;14.20;100.00
51781;BME280;37844;57.126;24.288;2022-10-29T08:33:53;100692.41;;;14.23;100.00
51781;BME280;37844;57.126;24.288;2022-10-29T08:36:18;100699.31;;;14.25;100.00
51781;BME280;37844;57.126;24.288;2022-10-29T08:38:45;100700.19;;;14.29;100.00
51781;BME280;37844;57.126;24.288;2022-10-29T08:41:40;100699.28;;;14.28;100.00
51781;BME280;37844;57.126;24.288;2022-10-29T08:47:15;100707.94;;;14.36;100.00
51781;BME280;37844;57.126;24.288;2022-10-29T08:49:50;100710.53;;;14.36;100.00
51781;BME280;37844;57.126;24.288;2022-10-29T08:52:26;100706.19;;;14.38;100.00
51781;BME280;37844;57.126;24.288;2022-10-29T08:57:31;100692.34;;;14.39;100.00
51781;BME280;37844;57.126;24.288;2022-10-29T09:00:21;100701.88;;;14.40;100.00
51781;BME280;37844;57.126;24.288;2022-10-29T09:02:59;100701.84;;;14.42;100.00
51781;BME280;37844;57.126;24.288;2022-10-29T09:05:49;100687.19;;;14.41;100.00
51781;BME280;37844;57.126;24.288;2022-10-29T09:14:35;100694.06;;;14.42;100.00
51781;BME280;37844;57.126;24.288;2022-10-29T09:17:29;100700.13;;;14.42;100.00
51781;BME280;37844;57.126;24.288;2022-10-29T09:23:29;100687.13;;;14.49;100.00
51781;BME280;37844;57.126;24.288;2022-10-29T09:26:02;100681.94;;;14.50;100.00
51781;BME280;37844;57.126;24.288;2022-10-29T09:33:41;100670.69;;;14.53;100.00
51781;BME280;37844;57.126;24.288;2022-10-29T09:36:16;100657.75;;;14.56;100.00
51781;BME280;37844;57.126;24.288;2022-10-29T09:39:00;100668.97;;;14.56;100.00
51781;BME280;37844;57.126;24.288;2022-10-29T09:41:33;100666.34;;;14.62;100.00
51781;BME280;37844;57.126;24.288;2022-10-29T09:44:02;100663.78;;;14.62;100.00
51781;BME280;37844;57.126;24.288;2022-10-29T09:49:57;100664.63;;;14.63;100.00
51781;BME280;37844;57.126;24.288;2022-10-29T09:52:29;100645.59;;;14.66;100.00
51781;BME280;37844;57.126;24.288;2022-10-29T09:54:57;100639.50;;;14.68;100.00
51781;BME280;37844;57.126;24.288;2022-10-29T09:57:27;100643.81;;;14.72;100.00
51781;BME280;37844;57.126;24.288;2022-10-29T09:59:59;100648.97;;;14.75;100.00
51781;BME280;37844;57.126;24.288;2022-10-29T10:02:36;100647.25;;;14.79;100.00
51781;BME280;37844;57.126;24.288;2022-10-29T10:07:36;100642.03;;;14.83;100.00
51781;BME280;37844;57.126;24.288;2022-10-29T10:10:04;100629.06;;;14.82;100.00
51781;BME280;37844;57.126;24.288;2022-10-29T10:20:37;100634.16;;;14.97;100.00
51781;BME280;37844;57.126;24.288;2022-10-29T10:23:21;100628.97;;;14.96;100.00
51781;BME280;37844;57.126;24.288;2022-10-29T10:25:47;100636.69;;;15.03;100.00
51781;BME280;37844;57.126;24.288;2022-10-29T10:28:19;100636.69;;;15.03;100.00
51781;BME280;37844;57.126;24.288;2022-10-29T10:31:09;100636.69;;;15.05;100.00
51781;BME280;37844;57.126;24.288;2022-10-29T10:33:35;100633.22;;;15.06;100.00
51781;BME280;37844;57.126;24.288;2022-10-29T10:36:08;100635.81;;;15.09;100.00
51781;BME280;37844;57.126;24.288;2022-10-29T10:38:45;100625.44;;;15.06;100.00
51781;BME280;37844;57.126;24.288;2022-10-29T10:41:13;100619.34;;;15.09;100.00
51781;BME280;37844;57.126;24.288;2022-10-29T10:43:46;100617.63;;;15.09;100.00
51781;BME280;37844;57.126;24.288;2022-10-29T10:46:28;100606.41;;;15.07;100.00
51781;BME280;37844;57.126;24.288;2022-10-29T10:49:04;100599.44;;;15.11;100.00
51781;BME280;37844;57.126;24.288;2022-10-29T10:51:35;100608.06;;;15.13;100.00
51781;BME280;37844;57.126;24.288;2022-10-29T10:54:03;100607.19;;;15.17;100.00
51781;BME280;37844;57.126;24.288;2022-10-29T10:59:27;100601.06;;;15.21;100.00
51781;BME280;37844;57.126;24.288;2022-10-29T11:01:54;100595.06;;;15.19;100.00
51781;BME280;37844;57.126;24.288;2022-10-29T11:04:32;100597.63;;;15.22;100.00
51781;BME280;37844;57.126;24.288;2022-10-29T11:07:04;100607.09;;;15.24;100.00
51781;BME280;37844;57.126;24.288;2022-10-29T11:09:40;100597.63;;;15.22;100.00
51781;BME280;37844;57.126;24.288;2022-10-29T11:12:30;100595.00;;;15.23;100.00
51781;BME280;37844;57.126;24.288;2022-10-29T11:15:05;100588.09;;;15.22;100.00
51781;BME280;37844;57.126;24.288;2022-10-29T11:17:48;100591.50;;;15.27;100.00
51781;BME280;37844;57.126;24.288;2022-10-29T11:20:26;100590.69;;;15.24;100.00
51781;BME280;37844;57.126;24.288;2022-10-29T11:25:22;100580.28;;;15.21;100.00
51781;BME280;37844;57.126;24.288;2022-10-29T11:30:43;100577.66;;;15.25;100.00
51781;BME280;37844;57.126;24.288;2022-10-29T11:35:52;100587.19;;;15.26;100.00
51781;BME280;37844;57.126;24.288;2022-10-29T11:38:22;100602.78;;;15.26;100.00
51781;BME280;37844;57.126;24.288;2022-10-29T11:43:36;100589.81;;;15.22;100.00
51781;BME280;37844;57.126;24.288;2022-10-29T11:46:23;100595.03;;;15.20;100.00
51781;BME280;37844;57.126;24.288;2022-10-29T12:05:33;100582.09;;;15.13;100.00
51781;BME280;37844;57.126;24.288;2022-10-29T12:08:15;100590.75;;;15.13;100.00
51781;BME280;37844;57.126;24.288;2022-10-29T12:13:34;100584.66;;;15.19;100.00
51781;BME280;37844;57.126;24.288;2022-10-29T12:16:08;100570.75;;;15.24;100.00
51781;BME280;37844;57.126;24.288;2022-10-29T12:18:55;100585.44;;;15.25;100.00
51781;BME280;37844;57.126;24.288;2022-10-29T12:21:54;100578.50;;;15.29;100.00
51781;BME280;37844;57.126;24.288;2022-10-29T12:29:43;100575.94;;;15.26;100.00
51781;BME280;37844;57.126;24.288;2022-10-29T12:32:22;100573.34;;;15.26;100.00
51781;BME280;37844;57.126;24.288;2022-10-29T12:40:59;100575.16;;;15.16;100.00
51781;BME280;37844;57.126;24.288;2022-10-29T12:43:29;100574.31;;;15.14;100.00
51781;BME280;37844;57.126;24.288;2022-10-29T12:46:34;100580.41;;;15.12;100.00
51781;BME280;37844;57.126;24.288;2022-10-29T12:52:27;100572.63;;;15.10;100.00
51781;BME280;37844;57.126;24.288;2022-10-29T12:56:53;100576.88;;;15.17;100.00
51781;BME280;37844;57.126;24.288;2022-10-29T13:01:50;100587.31;;;15.13;100.00
51781;BME280;37844;57.126;24.288;2022-10-29T13:04:26;100602.84;;;15.17;100.00
51781;BME280;37844;57.126;24.288;2022-10-29T13:09:42;100605.50;;;15.10;100.00
51781;BME280;37844;57.126;24.288;2022-10-29T13:12:10;100617.63;;;15.09;100.00
51781;BME280;37844;57.126;24.288;2022-10-29T13:14:37;100621.09;;;15.10;100.00
51781;BME280;37844;57.126;24.288;2022-10-29T13:17:17;100619.38;;;15.04;100.00
51781;BME280;37844;57.126;24.288;2022-10-29T13:19:48;100606.44;;;15.01;100.00
51781;BME280;37844;57.126;24.288;2022-10-29T13:24:42;100615.16;;;14.88;100.00
51781;BME280;37844;57.126;24.288;2022-10-29T13:32:34;100620.44;;;14.77;100.00
51781;BME280;37844;57.126;24.288;2022-10-29T13:35:01;100628.25;;;14.72;100.00
51781;BME280;37844;57.126;24.288;2022-10-29T13:37:50;100634.31;;;14.71;100.00
51781;BME280;37844;57.126;24.288;2022-10-29T13:43:11;100642.09;;;14.68;100.00
51781;BME280;37844;57.126;24.288;2022-10-29T13:45:40;100644.69;;;14.68;100.00
51781;BME280;37844;57.126;24.288;2022-10-29T13:48:17;100651.63;;;14.66;100.00
51781;BME280;37844;57.126;24.288;2022-10-29T13:50:50;100641.31;;;14.60;100.00
51781;BME280;37844;57.126;24.288;2022-10-29T13:53:20;100633.50;;;14.58;100.00
51781;BME280;37844;57.126;24.288;2022-10-29T13:55:49;100635.28;;;14.55;100.00
51781;BME280;37844;57.126;24.288;2022-10-29T13:58:33;100622.31;;;14.50;100.00
51781;BME280;37844;57.126;24.288;2022-10-29T14:01:02;100628.38;;;14.48;100.00
51781;BME280;37844;57.126;24.288;2022-10-29T14:03:40;100637.88;;;14.46;100.00
51781;BME280;37844;57.126;24.288;2022-10-29T14:06:17;100643.94;;;14.40;100.00
51781;BME280;37844;57.126;24.288;2022-10-29T14:08:52;100658.66;;;14.39;100.00
51781;BME280;37844;57.126;24.288;2022-10-29T14:11:23;100664.69;;;14.35;100.00
51781;BME280;37844;57.126;24.288;2022-10-29T14:13:52;100655.22;;;14.31;100.00
51781;BME280;37844;57.126;24.288;2022-10-29T14:16:26;100660.41;;;14.28;100.00
51781;BME280;37844;57.126;24.288;2022-10-29T14:18:53;100665.59;;;14.24;100.00
51781;BME280;37844;57.126;24.288;2022-10-29T14:21:22;100665.63;;;14.27;100.00
51781;BME280;37844;57.126;24.288;2022-10-29T14:23:59;100657.84;;;14.24;100.00
51781;BME280;37844;57.126;24.288;2022-10-29T14:26:26;100661.28;;;14.21;100.00
51781;BME280;37844;57.126;24.288;2022-10-29T14:28:52;100661.31;;;14.18;100.00
51781;BME280;37844;57.126;24.288;2022-10-29T14:31:23;100659.59;;;14.14;100.00
51781;BME280;37844;57.126;24.288;2022-10-29T14:33:53;100661.34;;;14.15;100.00
51781;BME280;37844;57.126;24.288;2022-10-29T14:41:41;100661.38;;;14.07;100.00
51781;BME280;37844;57.126;24.288;2022-10-29T14:44:13;100644.94;;;14.05;100.00
51781;BME280;37844;57.126;24.288;2022-10-29T14:46:40;100647.53;;;14.04;100.00
51781;BME280;37844;57.126;24.288;2022-10-29T14:49:18;100660.50;;;14.00;100.00
51781;BME280;37844;57.126;24.288;2022-10-29T14:52:05;100661.38;;;13.98;100.00
51781;BME280;37844;57.126;24.288;2022-10-29T14:54:38;100669.16;;;13.98;100.00
51781;BME280;37844;57.126;24.288;2022-10-29T14:57:15;100669.16;;;13.98;100.00
51781;BME280;37844;57.126;24.288;2022-10-29T14:59:47;100664.81;;;13.97;100.00
51781;BME280;37844;57.126;24.288;2022-10-29T15:02:14;100661.38;;;13.96;100.00